createdAt,value
2018-04-24T00:01:02.589Z,100870
2018-04-24T00:03:33.549Z,100871
2018-04-24T00:06:02.618Z,100864
2018-04-24T00:08:31.036Z,100856
2018-04-24T00:11:00.089Z,100850
2018-04-24T00:13:28.489Z,100848
2018-04-24T00:15:56.793Z,100852
2018-04-24T00:18:25.174Z,100848
2018-04-24T00:20:53.529Z,100848
2018-04-24T00:23:21.922Z,100849
2018-04-24T00:25:50.988Z,100857
2018-04-24T00:28:20.793Z,100854
2018-04-24T00:30:49.127Z,100861
2018-04-24T00:33:17.460Z,100860
2018-04-24T00:35:45.810Z,100867
2018-04-24T00:38:14.218Z,100868
2018-04-24T00:40:43.524Z,100866
2018-04-24T00:43:12.597Z,100855
2018-04-24T00:45:40.922Z,100854
2018-04-24T00:48:09.986Z,100857
2018-04-24T00:50:38.273Z,100854
2018-04-24T00:53:25.334Z,100847
2018-04-24T00:55:54.650Z,100846
2018-04-24T00:58:23.003Z,100839
2018-04-24T01:00:51.325Z,100831
2018-04-24T01:03:19.645Z,100825
2018-04-24T01:05:47.952Z,100829
2018-04-24T01:08:16.314Z,100847
2018-04-24T01:10:44.590Z,100845
2018-04-24T01:13:12.854Z,100847
2018-04-24T01:15:41.236Z,100841
2018-04-24T01:18:09.516Z,100833
2018-04-24T01:20:37.871Z,100825
2018-04-24T01:23:07.022Z,100813
2018-04-24T01:25:35.565Z,100812
2018-04-24T01:28:03.861Z,100805
2018-04-24T01:30:32.199Z,100817
2018-04-24T01:33:01.506Z,100818
2018-04-24T01:35:30.524Z,100826
2018-04-24T01:37:58.890Z,100826
2018-04-24T01:40:27.940Z,100810
2018-04-24T01:42:56.389Z,100812
2018-04-24T01:45:24.699Z,100814
2018-04-24T01:47:52.995Z,100825
2018-04-24T01:50:21.265Z,100823
2018-04-24T01:52:49.576Z,100823
2018-04-24T01:55:18.801Z,100821
2018-04-24T01:57:47.242Z,100810
2018-04-24T02:00:16.346Z,100813
2018-04-24T02:02:44.802Z,100828
2018-04-24T02:05:13.934Z,100837
2018-04-24T02:07:42.302Z,100830
2018-04-24T02:10:10.630Z,100831
2018-04-24T02:12:39.000Z,100836
2018-04-24T02:15:07.299Z,100839
2018-04-24T02:17:35.730Z,100836
2018-04-24T02:20:03.984Z,100828
2018-04-24T02:22:32.325Z,100835
2018-04-24T02:25:00.689Z,100832
2018-04-24T02:27:30.796Z,100817
2018-04-24T02:29:59.170Z,100824
2018-04-24T02:32:27.555Z,100819
2018-04-24T02:34:55.871Z,100814
2018-04-24T02:37:24.470Z,100811
2018-04-24T02:39:53.546Z,100821
2018-04-24T02:42:21.884Z,100817
2018-04-24T02:44:50.181Z,100810
2018-04-24T02:47:18.495Z,100805
2018-04-24T02:49:47.651Z,100817
2018-04-24T02:52:16.070Z,100813
2018-04-24T02:54:45.166Z,100813
2018-04-24T02:57:15.361Z,100812
2018-04-24T02:59:43.647Z,100796
2018-04-24T03:02:11.959Z,100805
2018-04-24T03:04:40.254Z,100799
2018-04-24T03:07:08.555Z,100795
2018-04-24T03:09:37.764Z,100792
2018-04-24T03:12:06.095Z,100779
2018-04-24T03:14:34.396Z,100784
2018-04-24T03:17:02.704Z,100797
2018-04-24T03:19:31.803Z,100798
2018-04-24T03:22:00.860Z,100800
2018-04-24T03:24:29.338Z,100795
2018-04-24T03:26:57.819Z,100809
2018-04-24T03:29:26.259Z,100805
2018-04-24T03:31:54.639Z,100813
2018-04-24T03:34:23.736Z,100806
2018-04-24T03:36:52.984Z,100808
2018-04-24T03:39:21.461Z,100809
2018-04-24T03:41:49.780Z,100816
2018-04-24T03:44:18.961Z,100808
2018-04-24T03:46:47.301Z,100808
2018-04-24T03:49:15.851Z,100785
2018-04-24T03:51:45.045Z,100771
2018-04-24T03:54:14.215Z,100783
2018-04-24T03:56:42.519Z,100780
2018-04-24T03:59:11.655Z,100781
2018-04-24T04:01:40.057Z,100782
2018-04-24T04:04:08.819Z,100792
2018-04-24T04:06:37.124Z,100796
2018-04-24T04:09:05.446Z,100785
2018-04-24T04:11:33.776Z,100780
2018-04-24T04:14:02.219Z,100777
2018-04-24T04:16:30.496Z,100785
2018-04-24T04:19:16.740Z,100783
2018-04-24T04:22:03.824Z,100790
2018-04-24T04:24:52.205Z,100786
2018-04-24T04:27:20.514Z,100771
2018-04-24T04:29:49.652Z,100768
2018-04-24T04:32:18.161Z,100765
2018-04-24T04:34:46.592Z,100788
2018-04-24T04:37:14.912Z,100785
2018-04-24T04:39:43.226Z,100790
2018-04-24T04:42:11.950Z,100796
2018-04-24T04:44:40.260Z,100805
2018-04-24T04:47:08.686Z,100809
2018-04-24T04:49:37.246Z,100825
2018-04-24T04:52:06.853Z,100829
2018-04-24T04:54:37.047Z,100839
2018-04-24T04:57:05.398Z,100832
2018-04-24T04:59:33.707Z,100834
2018-04-24T05:02:02.035Z,100829
2018-04-24T05:04:30.441Z,100835
2018-04-24T05:06:58.738Z,100841
2018-04-24T05:09:27.068Z,100842
2018-04-24T05:11:55.404Z,100844
2018-04-24T05:14:23.735Z,100847
2018-04-24T05:16:52.023Z,100844
2018-04-24T05:19:20.317Z,100841
2018-04-24T05:21:48.621Z,100833
2018-04-24T05:24:18.862Z,100825
2018-04-24T05:26:47.168Z,100829
2018-04-24T05:29:15.476Z,100843
2018-04-24T05:31:43.812Z,100846
2018-04-24T05:34:12.216Z,100834
2018-04-24T05:36:40.497Z,100841
2018-04-24T05:39:08.887Z,100838
2018-04-24T05:41:37.322Z,100842
2018-04-24T05:44:06.037Z,100848
2018-04-24T05:46:34.372Z,100847
2018-04-24T05:49:02.677Z,100843
2018-04-24T05:51:31.047Z,100846
2018-04-24T05:53:59.483Z,100857
2018-04-24T05:56:28.577Z,100850
2018-04-24T05:58:57.749Z,100849
2018-04-24T06:01:26.075Z,100843
2018-04-24T06:03:54.392Z,100855
2018-04-24T06:06:22.900Z,100855
2018-04-24T06:08:51.369Z,100866
2018-04-24T06:11:19.688Z,100870
2018-04-24T06:13:48.155Z,100867
2018-04-24T06:16:17.226Z,100884
2018-04-24T06:18:45.556Z,100871
2018-04-24T06:21:13.950Z,100862
2018-04-24T06:23:43.440Z,100863
2018-04-24T06:26:11.758Z,100865
2018-04-24T06:28:40.229Z,100857
2018-04-24T06:31:09.121Z,100869
2018-04-24T06:33:37.555Z,100868
2018-04-24T06:36:05.857Z,100853
2018-04-24T06:38:34.095Z,100862
2018-04-24T06:41:03.315Z,100858
2018-04-24T06:43:31.595Z,100870
2018-04-24T06:45:59.905Z,100865
2018-04-24T06:48:28.237Z,100867
2018-04-24T06:50:56.640Z,100857
2018-04-24T06:53:25.042Z,100858
2018-04-24T06:55:53.454Z,100860
2018-04-24T06:58:22.792Z,100861
2018-04-24T07:00:51.158Z,100860
2018-04-24T07:03:19.466Z,100857
2018-04-24T07:05:47.780Z,100859
2018-04-24T07:08:16.091Z,100857
2018-04-24T07:10:44.492Z,100857
2018-04-24T07:13:12.901Z,100852
2018-04-24T07:15:41.192Z,100856
2018-04-24T07:18:09.542Z,100851
2018-04-24T07:20:38.056Z,100845
2018-04-24T07:23:08.268Z,100850
2018-04-24T07:25:38.461Z,100856
2018-04-24T07:28:06.796Z,100860
2018-04-24T07:30:35.103Z,100848
2018-04-24T07:33:03.424Z,100850
2018-04-24T07:35:31.836Z,100853
2018-04-24T07:38:00.347Z,100853
2018-04-24T07:40:28.966Z,100856
2018-04-24T07:42:57.257Z,100860
2018-04-24T07:45:26.366Z,100875
2018-04-24T07:47:55.517Z,100866
2018-04-24T07:50:23.936Z,100873
2018-04-24T07:52:53.135Z,100861
2018-04-24T07:55:22.270Z,100862
2018-04-24T07:57:51.432Z,100871
2018-04-24T08:00:20.578Z,100862
2018-04-24T08:02:48.934Z,100866
2018-04-24T08:05:17.358Z,100868
2018-04-24T08:07:45.698Z,100863
2018-04-24T08:10:14.012Z,100865
2018-04-24T08:12:43.063Z,100861
2018-04-24T08:15:11.512Z,100863
2018-04-24T08:17:40.570Z,100867
2018-04-24T08:20:08.921Z,100873
2018-04-24T08:22:40.788Z,100870
2018-04-24T08:25:09.101Z,100868
2018-04-24T08:27:37.386Z,100869
2018-04-24T08:30:06.466Z,100865
2018-04-24T08:32:34.777Z,100855
2018-04-24T08:35:03.182Z,100860
2018-04-24T08:37:31.615Z,100854
2018-04-24T08:40:00.883Z,100865
2018-04-24T08:42:29.346Z,100873
2018-04-24T08:44:57.777Z,100874
2018-04-24T08:47:27.168Z,100885
2018-04-24T08:49:55.514Z,100882
2018-04-24T08:52:23.837Z,100896
2018-04-24T08:54:53.111Z,100900
2018-04-24T08:57:21.422Z,100890
2018-04-24T08:59:50.474Z,100912
2018-04-24T09:02:18.818Z,100897
2018-04-24T09:04:49.706Z,100903
2018-04-24T09:07:18.003Z,100900
2018-04-24T09:09:47.222Z,100904
2018-04-24T09:12:15.767Z,100911
2018-04-24T09:14:44.286Z,100910
2018-04-24T09:17:12.617Z,100906
2018-04-24T09:19:42.497Z,100908
2018-04-24T09:22:10.836Z,100907
2018-04-24T09:24:39.880Z,100902
2018-04-24T09:27:08.373Z,100900
2018-04-24T09:29:37.424Z,100898
2018-04-24T09:32:05.839Z,100896
2018-04-24T09:34:35.329Z,100903
2018-04-24T09:37:03.774Z,100897
2018-04-24T09:39:32.830Z,100886
2018-04-24T09:42:01.191Z,100887
2018-04-24T09:44:29.456Z,100888
2018-04-24T09:46:57.812Z,100903
2018-04-24T09:49:26.212Z,100905
2018-04-24T09:51:54.634Z,100916
2018-04-24T09:54:22.963Z,100916
2018-04-24T09:56:51.468Z,100915
2018-04-24T09:59:19.775Z,100917
2018-04-24T10:01:48.064Z,100911
2018-04-24T10:04:17.340Z,100912
2018-04-24T10:06:45.635Z,100916
2018-04-24T10:09:13.954Z,100915
2018-04-24T10:11:42.274Z,100912
2018-04-24T10:14:10.600Z,100911
2018-04-24T10:16:38.923Z,100913
2018-04-24T10:19:07.396Z,100921
2018-04-24T10:21:35.750Z,100920
2018-04-24T10:24:04.105Z,100917
2018-04-24T10:26:32.534Z,100911
2018-04-24T10:29:00.826Z,100913
2018-04-24T10:31:29.158Z,100910
2018-04-24T10:33:57.455Z,100909
2018-04-24T10:36:25.793Z,100914
2018-04-24T10:38:54.137Z,100915
2018-04-24T10:41:22.571Z,100903
2018-04-24T10:43:51.087Z,100901
2018-04-24T10:46:19.509Z,100908
2018-04-24T10:48:47.894Z,100906
2018-04-24T10:51:16.223Z,100898
2018-04-24T10:53:44.554Z,100892
2018-04-24T10:56:12.972Z,100885
2018-04-24T10:58:46.656Z,100886
2018-04-24T11:01:15.008Z,100878
2018-04-24T11:03:43.502Z,100883
2018-04-24T11:06:11.994Z,100875
2018-04-24T11:08:40.396Z,100861
2018-04-24T11:11:08.719Z,100883
2018-04-24T11:13:37.901Z,100890
2018-04-24T11:16:06.991Z,100889
2018-04-24T11:18:36.341Z,100892
2018-04-24T11:21:04.809Z,100899
2018-04-24T11:23:33.136Z,100878
2018-04-24T11:26:01.685Z,100880
2018-04-24T11:28:30.294Z,100875
2018-04-24T11:30:58.846Z,100877
2018-04-24T11:33:27.168Z,100889
2018-04-24T11:35:55.644Z,100901
2018-04-24T11:38:24.260Z,100896
2018-04-24T11:40:52.663Z,100900
2018-04-24T11:43:21.071Z,100900
2018-04-24T11:45:49.379Z,100895
2018-04-24T11:48:18.481Z,100903
2018-04-24T11:50:47.556Z,100911
2018-04-24T11:53:15.896Z,100901
2018-04-24T11:58:06.926Z,100899
2018-04-24T12:00:35.481Z,100905
2018-04-24T12:03:03.865Z,100899
2018-04-24T12:05:32.332Z,100897
2018-04-24T12:08:00.890Z,100902
2018-04-24T12:10:29.366Z,100901
2018-04-24T12:12:57.741Z,100912
2018-04-24T12:15:26.212Z,100898
2018-04-24T12:17:54.518Z,100888
2018-04-24T12:20:23.619Z,100896
2018-04-24T12:22:52.773Z,100899
2018-04-24T12:25:21.136Z,100899
2018-04-24T12:27:50.140Z,100905
2018-04-24T12:30:18.478Z,100897
2018-04-24T12:32:46.940Z,100895
2018-04-24T12:35:16.067Z,100900
2018-04-24T12:37:44.447Z,100891
2018-04-24T12:40:13.023Z,100889
2018-04-24T12:42:41.572Z,100881
2018-04-24T12:45:10.043Z,100883
2018-04-24T12:47:39.093Z,100879
2018-04-24T12:50:07.567Z,100877
2018-04-24T12:52:35.881Z,100882
2018-04-24T12:55:04.304Z,100868
2018-04-24T12:57:32.749Z,100875
2018-04-24T13:00:01.089Z,100875
2018-04-24T13:02:29.432Z,100883
2018-04-24T13:04:58.595Z,100879
2018-04-24T13:07:27.015Z,100886
2018-04-24T13:09:56.107Z,100872
2018-04-24T13:12:25.263Z,100871
2018-04-24T13:14:53.673Z,100861
2018-04-24T13:17:22.854Z,100855
2018-04-24T13:19:51.944Z,100855
2018-04-24T13:22:20.293Z,100844
2018-04-24T13:24:48.635Z,100846
2018-04-24T13:27:17.162Z,100848
2018-04-24T13:29:46.762Z,100846
2018-04-24T13:32:15.110Z,100843
2018-04-24T13:34:43.842Z,100824
2018-04-24T13:37:12.368Z,100829
2018-04-24T13:39:41.010Z,100830
2018-04-24T13:42:09.541Z,100830
2018-04-24T13:44:38.079Z,100829
2018-04-24T13:47:06.468Z,100825
2018-04-24T13:49:35.029Z,100837
2018-04-24T13:52:03.354Z,100836
2018-04-24T13:54:32.655Z,100814
2018-04-24T13:57:01.773Z,100815
2018-04-24T13:59:30.128Z,100809
2018-04-24T14:01:59.818Z,100812
2018-04-24T14:04:28.564Z,100805
2018-04-24T14:06:56.926Z,100796
2018-04-24T14:09:25.370Z,100798
2018-04-24T14:11:54.461Z,100790
2018-04-24T14:14:23.800Z,100788
2018-04-24T14:16:52.425Z,100781
2018-04-24T14:19:20.848Z,100779
2018-04-24T14:21:50.271Z,100781
2018-04-24T14:24:18.741Z,100781
2018-04-24T14:26:47.154Z,100761
2018-04-24T14:29:15.621Z,100767
2018-04-24T14:31:43.963Z,100761
2018-04-24T14:34:13.169Z,100770
2018-04-24T14:36:41.507Z,100768
2018-04-24T14:39:09.956Z,100768
2018-04-24T14:41:38.590Z,100762
2018-04-24T14:44:06.948Z,100755
2018-04-24T14:46:35.333Z,100734
2018-04-24T14:49:03.681Z,100737
2018-04-24T14:51:32.011Z,100731
2018-04-24T14:54:01.675Z,100721
2018-04-24T14:56:30.175Z,100723
2018-04-24T14:58:58.675Z,100719
2018-04-24T15:01:27.840Z,100708
2018-04-24T15:03:56.406Z,100711
2018-04-24T15:06:26.631Z,100700
2018-04-24T15:08:55.019Z,100703
2018-04-24T15:11:24.334Z,100700
2018-04-24T15:13:54.333Z,100698
2018-04-24T15:16:22.796Z,100701
2018-04-24T15:18:51.249Z,100695
2018-04-24T15:21:19.631Z,100705
2018-04-24T15:23:48.809Z,100703
2018-04-24T15:26:17.320Z,100697
2018-04-24T15:28:45.623Z,100698
2018-04-24T15:31:14.345Z,100686
2018-04-24T15:33:42.757Z,100680
2018-04-24T15:36:11.123Z,100683
2018-04-24T15:38:40.458Z,100675
2018-04-24T15:41:08.800Z,100672
2018-04-24T15:43:37.155Z,100673
2018-04-24T15:46:05.561Z,100672
2018-04-24T15:48:34.276Z,100657
2018-04-24T15:51:02.606Z,100653
2018-04-24T15:53:31.791Z,100650
2018-04-24T15:56:00.156Z,100639
2018-04-24T15:58:28.503Z,100637
2018-04-24T16:00:56.817Z,100635
2018-04-24T16:03:25.163Z,100639
2018-04-24T16:05:53.807Z,100634
2018-04-24T16:08:23.151Z,100635
2018-04-24T16:10:52.891Z,100630
2018-04-24T16:13:22.466Z,100624
2018-04-24T16:15:50.820Z,100625
2018-04-24T16:18:19.216Z,100624
2018-04-24T16:20:47.708Z,100625
2018-04-24T16:23:15.999Z,100607
2018-04-24T16:25:44.459Z,100616
2018-04-24T16:28:12.846Z,100617
2018-04-24T16:30:41.337Z,100619
2018-04-24T16:33:09.978Z,100616
2018-04-24T16:35:39.417Z,100617
2018-04-24T16:38:07.862Z,100612
2018-04-24T16:40:37.031Z,100604
2018-04-24T16:43:06.206Z,100599
2018-04-24T16:45:36.152Z,100609
2018-04-24T16:48:06.481Z,100604
2018-04-24T16:50:35.923Z,100595
2018-04-24T16:53:04.341Z,100598
2018-04-24T16:55:32.747Z,100600
2018-04-24T16:58:01.873Z,100594
2018-04-24T17:00:30.355Z,100588
2018-04-24T17:02:58.989Z,100571
2018-04-24T17:05:27.449Z,100572
2018-04-24T17:07:55.745Z,100576
2018-04-24T17:10:24.291Z,100564
2018-04-24T17:12:52.860Z,100560
2018-04-24T17:15:21.261Z,100550
2018-04-24T17:17:49.787Z,100547
2018-04-24T17:20:18.306Z,100549
2018-04-24T17:22:46.733Z,100552
2018-04-24T17:25:16.177Z,100551
2018-04-24T17:27:44.505Z,100544
2018-04-24T17:30:12.888Z,100545
2018-04-24T17:32:41.259Z,100543
2018-04-24T17:35:09.810Z,100545
2018-04-24T17:37:38.500Z,100536
2018-04-24T17:40:06.796Z,100537
2018-04-24T17:42:35.185Z,100537
2018-04-24T17:45:03.522Z,100535
2018-04-24T17:47:31.861Z,100529
2018-04-24T17:50:00.289Z,100529
2018-04-24T17:52:29.723Z,100533
2018-04-24T17:54:58.134Z,100524
2018-04-24T17:57:27.333Z,100529
2018-04-24T17:59:56.499Z,100529
2018-04-24T18:02:24.928Z,100525
2018-04-24T18:04:53.304Z,100525
2018-04-24T18:07:21.819Z,100527
2018-04-24T18:09:50.268Z,100525
2018-04-24T18:12:19.353Z,100528
2018-04-24T18:14:47.806Z,100525
2018-04-24T18:17:16.305Z,100524
2018-04-24T18:19:45.424Z,100525
2018-04-24T18:22:13.873Z,100525
2018-04-24T18:24:43.121Z,100520
2018-04-24T18:27:11.635Z,100517
2018-04-24T18:29:40.028Z,100517
2018-04-24T18:32:09.069Z,100519
2018-04-24T18:34:37.737Z,100514
2018-04-24T18:37:06.846Z,100519
2018-04-24T18:39:35.444Z,100518
2018-04-24T18:42:03.951Z,100526
2018-04-24T18:44:32.324Z,100525
2018-04-24T18:47:00.881Z,100524
2018-04-24T18:49:29.736Z,100516
2018-04-24T18:51:59.319Z,100516
2018-04-24T18:54:27.696Z,100508
2018-04-24T18:56:56.103Z,100502
2018-04-24T18:59:24.613Z,100503
2018-04-24T19:01:52.954Z,100503
2018-04-24T19:04:22.371Z,100505
2018-04-24T19:06:50.784Z,100505
2018-04-24T19:09:19.240Z,100504
2018-04-24T19:11:47.638Z,100498
2018-04-24T19:14:21.470Z,100492
2018-04-24T19:16:49.866Z,100496
2018-04-24T19:19:23.751Z,100496
2018-04-24T19:21:52.360Z,100494
2018-04-24T19:24:26.204Z,100495
2018-04-24T19:26:54.566Z,100482
2018-04-24T19:29:23.671Z,100485
2018-04-24T19:31:57.695Z,100483
2018-04-24T19:34:26.117Z,100481
2018-04-24T19:36:54.544Z,100481
2018-04-24T19:39:28.741Z,100475
2018-04-24T19:41:57.863Z,100470
2018-04-24T19:44:26.348Z,100477
2018-04-24T19:46:54.716Z,100473
2018-04-24T19:49:28.737Z,100473
2018-04-24T19:51:57.158Z,100467
2018-04-24T19:54:25.608Z,100461
2018-04-24T19:56:53.990Z,100467
2018-04-24T19:59:22.440Z,100466
2018-04-24T20:01:50.763Z,100467
2018-04-24T20:04:19.484Z,100467
2018-04-24T20:06:48.610Z,100465
2018-04-24T20:09:16.986Z,100462
2018-04-24T20:11:45.362Z,100462
2018-04-24T20:14:13.760Z,100460
2018-04-24T20:16:42.377Z,100460
2018-04-24T20:19:10.899Z,100457
2018-04-24T20:21:40.233Z,100450
2018-04-24T20:24:09.766Z,100443
2018-04-24T20:26:38.233Z,100449
2018-04-24T20:29:06.708Z,100447
2018-04-24T20:31:35.111Z,100443
2018-04-24T20:34:03.517Z,100442
2018-04-24T20:36:32.657Z,100434
2018-04-24T20:39:00.992Z,100432
2018-04-24T20:41:30.132Z,100428
2018-04-24T20:43:58.565Z,100429
2018-04-24T20:46:27.721Z,100425
2018-04-24T20:48:56.260Z,100419
2018-04-24T20:51:24.722Z,100410
2018-04-24T20:53:53.139Z,100414
2018-04-24T20:56:21.524Z,100411
2018-04-24T20:58:49.884Z,100404
2018-04-24T21:01:18.468Z,100395
2018-04-24T21:03:46.966Z,100383
2018-04-24T21:06:15.386Z,100380
2018-04-24T21:08:43.691Z,100370
2018-04-24T21:11:12.837Z,100367
2018-04-24T21:13:41.120Z,100355
2018-04-24T21:16:09.532Z,100353
2018-04-24T21:18:38.845Z,100357
2018-04-24T21:21:07.929Z,100355
2018-04-24T21:23:37.036Z,100351
2018-04-24T21:26:06.586Z,100347
2018-04-24T21:28:34.990Z,100342
2018-04-24T21:31:03.331Z,100347
2018-04-24T21:33:31.722Z,100341
2018-04-24T21:36:00.081Z,100339
2018-04-24T21:38:28.463Z,100337
2018-04-24T21:40:56.788Z,100331
2018-04-24T21:43:25.261Z,100328
2018-04-24T21:45:53.613Z,100329
2018-04-24T21:48:22.422Z,100320
2018-04-24T21:50:50.802Z,100319
2018-04-24T21:53:19.142Z,100309
2018-04-24T21:55:48.502Z,100307
2018-04-24T21:58:18.853Z,100298
2018-04-24T22:00:47.301Z,100292
2018-04-24T22:03:15.655Z,100291
2018-04-24T22:05:44.001Z,100287
2018-04-24T22:08:12.482Z,100286
2018-04-24T22:10:40.983Z,100280
2018-04-24T22:13:09.312Z,100269
2018-04-24T22:15:38.412Z,100264
2018-04-24T22:18:07.627Z,100258
2018-04-24T22:20:35.996Z,100248
2018-04-24T22:23:04.682Z,100244
2018-04-24T22:25:32.996Z,100244
2018-04-24T22:28:02.532Z,100239
2018-04-24T22:30:30.929Z,100237
2018-04-24T22:33:00.086Z,100231
2018-04-24T22:35:28.387Z,100236
2018-04-24T22:37:57.317Z,100226
2018-04-24T22:40:25.839Z,100233
2018-04-24T22:42:54.980Z,100229
2018-04-24T22:45:24.028Z,100220
2018-04-24T22:47:52.359Z,100219
2018-04-24T22:50:20.651Z,100215
2018-04-24T22:52:49.143Z,100209
2018-04-24T22:55:17.632Z,100203
2018-04-24T22:57:46.002Z,100195
2018-04-24T23:00:16.964Z,100193
2018-04-24T23:02:46.266Z,100189
2018-04-24T23:05:14.694Z,100186
2018-04-24T23:07:43.082Z,100173
2018-04-24T23:10:10.777Z,100166
2018-04-24T23:12:56.940Z,100166
2018-04-24T23:15:43.061Z,100165
2018-04-24T23:18:29.261Z,100162
2018-04-24T23:20:56.712Z,100152
2018-04-24T23:23:25.053Z,100156
2018-04-24T23:25:53.348Z,100149
2018-04-24T23:28:21.701Z,100153
2018-04-24T23:30:50.796Z,100147
2018-04-24T23:33:19.979Z,100140
2018-04-24T23:35:48.256Z,100140
2018-04-24T23:38:17.361Z,100137
2018-04-24T23:40:46.551Z,100132
2018-04-24T23:43:15.758Z,100129
2018-04-24T23:45:44.817Z,100122
2018-04-24T23:48:13.147Z,100118
2018-04-24T23:50:41.423Z,100111
2018-04-24T23:53:09.756Z,100100
2018-04-24T23:55:39.443Z,100094
2018-04-24T23:58:07.733Z,100095
